Verona, Kentucky
Current Conditions -  °F | °C
As of 11:52 PM on Tuesday 25 Nov 2014 (Local Time) from KCVG Reporting Station
Overcast Overcast  
Wind Chill: 25°   Ceiling: 16000
Heat Index: 31°   Visibility: 7mi
Dew Point: 24°   Wind: 6mph
Humidity: 76%   Direction: 360°N
Pressure: 30.16"   Gusts: NA
Location:  38.82°N, 84.66°W
Report Text: KCVG 260452Z 36005KT 7SM OVC160 M01/M04 A3016 RMK AO2 SLP218 T10061044 400671006
Loading
Personal Weather Stations






























Interactive Weather Map New forecast layout! Learn more

10-Day Weather Forecast

Advertisements
Track Severe Weather on mobile